createdAt,value
2024-03-12T00:01:50.020Z,99738.98
2024-03-12T00:04:18.309Z,99737.21
2024-03-12T00:06:46.466Z,99735.73
2024-03-12T00:09:14.460Z,99730.30
2024-03-12T00:11:43.627Z,99727.17
2024-03-12T00:14:11.468Z,99727.91
2024-03-12T00:16:41.947Z,99727.16
2024-03-12T00:19:10.830Z,99727.55
2024-03-12T00:21:38.901Z,99723.51
2024-03-12T00:24:06.779Z,99727.34
2024-03-12T00:26:34.569Z,99725.71
2024-03-12T00:29:02.842Z,99725.10
2024-03-12T00:31:30.676Z,99723.55
2024-03-12T00:34:01.819Z,99722.27
2024-03-12T00:36:30.556Z,99725.80
2024-03-12T00:38:58.891Z,99726.95
2024-03-12T00:41:26.653Z,99729.47
2024-03-12T00:43:55.387Z,99731.19
2024-03-12T00:46:23.637Z,99731.67
2024-03-12T00:48:51.969Z,99732.40
2024-03-12T00:51:19.778Z,99739.66
2024-03-12T00:53:50.454Z,99740.23
2024-03-12T00:56:18.288Z,99742.40
2024-03-12T00:58:46.036Z,99743.25
2024-03-12T01:01:16.629Z,99742.50
2024-03-12T01:03:44.783Z,99741.42
2024-03-12T01:06:12.676Z,99737.04
2024-03-12T01:08:40.927Z,99737.58
2024-03-12T01:11:08.765Z,99738.05
2024-03-12T01:13:36.955Z,99736.91
2024-03-12T01:16:05.028Z,99735.44
2024-03-12T01:18:33.059Z,99733.85
2024-03-12T01:21:01.119Z,99732.84
2024-03-12T01:23:28.947Z,99727.30
2024-03-12T01:25:56.759Z,99727.52
2024-03-12T01:28:25.167Z,99728.38
2024-03-12T01:30:53.126Z,99728.50
2024-03-12T01:33:20.934Z,99731.69
2024-03-12T01:35:49.036Z,99731.22
2024-03-12T01:38:16.809Z,99726.72
2024-03-12T01:40:44.622Z,99728.98
2024-03-12T01:43:14.296Z,99729.22
2024-03-12T01:45:44.018Z,99728.71
2024-03-12T01:48:12.976Z,99721.13
2024-03-12T01:50:41.665Z,99725.15
2024-03-12T01:53:12.716Z,99726.02
2024-03-12T01:55:45.095Z,99724.50
2024-03-12T01:58:15.995Z,99727.30
2024-03-12T02:00:45.902Z,99726.59
2024-03-12T02:03:14.064Z,99729.95
2024-03-12T02:05:43.064Z,99727.23
2024-03-12T02:08:12.012Z,99727.29
2024-03-12T02:10:39.798Z,99725.19
2024-03-12T02:13:07.879Z,99723.79
2024-03-12T02:15:37.913Z,99727.52
2024-03-12T02:18:09.296Z,99730.16
2024-03-12T02:20:39.512Z,99732.56
2024-03-12T02:23:07.350Z,99735.45
2024-03-12T02:25:35.103Z,99736.02
2024-03-12T02:28:04.034Z,99737.11
2024-03-12T02:30:32.178Z,99736.61
2024-03-12T02:33:01.080Z,99738.64
2024-03-12T02:35:29.214Z,99741.27
2024-03-12T02:37:56.990Z,99740.86
2024-03-12T02:40:24.910Z,99740.83
2024-03-12T02:42:52.751Z,99741.84
2024-03-12T02:45:22.401Z,99742.38
2024-03-12T02:47:50.607Z,99741.88
2024-03-12T02:50:19.632Z,99735.93
2024-03-12T02:52:47.494Z,99733.92
2024-03-12T02:55:15.676Z,99735.48
2024-03-12T02:57:44.641Z,99734.98
2024-03-12T03:00:14.741Z,99740.04
2024-03-12T03:02:45.164Z,99738.20
2024-03-12T03:05:14.631Z,99737.70
2024-03-12T03:07:43.800Z,99737.71
2024-03-12T03:10:13.509Z,99738.56
2024-03-12T03:12:46.319Z,99740.79
2024-03-12T03:15:15.031Z,99740.55
2024-03-12T03:17:44.299Z,99743.38
2024-03-12T03:20:13.537Z,99741.67
2024-03-12T03:22:42.580Z,99746.79
2024-03-12T03:25:13.298Z,99749.92
2024-03-12T03:27:41.304Z,99746.77
2024-03-12T03:30:11.570Z,99753.55
2024-03-12T03:32:40.685Z,99749.17
2024-03-12T03:35:08.832Z,99749.80
2024-03-12T03:37:36.926Z,99747.34
2024-03-12T03:40:05.987Z,99750.98
2024-03-12T03:42:34.000Z,99754.11
2024-03-12T03:45:01.744Z,99757.41
2024-03-12T03:47:35.905Z,99755.52
2024-03-12T03:50:05.214Z,99762.20
2024-03-12T03:52:33.136Z,99767.37
2024-03-12T03:55:01.016Z,99765.70
2024-03-12T03:57:31.892Z,99767.89
2024-03-12T03:59:59.706Z,99770.20
2024-03-12T04:02:28.274Z,99770.11
2024-03-12T04:04:57.071Z,99766.83
2024-03-12T04:07:26.596Z,99770.10
2024-03-12T04:09:56.141Z,99773.34
2024-03-12T04:12:24.156Z,99776.44
2024-03-12T04:14:52.152Z,99776.51
2024-03-12T04:17:20.992Z,99773.05
2024-03-12T04:19:49.187Z,99777.25
2024-03-12T04:22:20.665Z,99779.52
2024-03-12T04:24:48.458Z,99776.15
2024-03-12T04:27:16.849Z,99781.14
2024-03-12T04:29:44.807Z,99785.92
2024-03-12T04:32:12.644Z,99785.63
2024-03-12T04:34:41.187Z,99787.77
2024-03-12T04:37:09.132Z,99790.52
2024-03-12T04:39:39.689Z,99786.29
2024-03-12T04:42:08.088Z,99788.60
2024-03-12T04:44:36.235Z,99790.08
2024-03-12T04:47:05.250Z,99791.91
2024-03-12T04:49:33.069Z,99797.62
2024-03-12T04:52:01.516Z,99800.38
2024-03-12T04:54:29.441Z,99805.85
2024-03-12T04:56:58.449Z,99808.46
2024-03-12T04:59:26.359Z,99809.94
2024-03-12T05:01:54.581Z,99814.20
2024-03-12T05:04:23.986Z,99814.52
2024-03-12T05:06:52.140Z,99815.85
2024-03-12T05:09:20.392Z,99813.33
2024-03-12T05:11:49.127Z,99817.99
2024-03-12T05:14:17.011Z,99819.77
2024-03-12T05:16:47.772Z,99820.57
2024-03-12T05:19:15.586Z,99826.06
2024-03-12T05:21:48.605Z,99825.85
2024-03-12T05:24:19.288Z,99829.34
2024-03-12T05:26:50.597Z,99834.05
2024-03-12T05:29:27.356Z,99832.79
2024-03-12T05:31:55.197Z,99835.27
2024-03-12T05:34:30.464Z,99839.63
2024-03-12T05:37:05.666Z,99839.98
2024-03-12T05:39:59.663Z,99840.31
2024-03-12T05:42:46.985Z,99839.89
2024-03-12T05:45:33.422Z,99848.19
2024-03-12T05:48:13.673Z,99848.39
2024-03-12T05:50:43.733Z,99851.33
2024-03-12T05:53:12.107Z,99853.61
2024-03-12T05:55:42.908Z,99855.02
2024-03-12T05:58:13.789Z,99855.17
2024-03-12T06:00:41.654Z,99860.73
2024-03-12T06:03:09.398Z,99863.60
2024-03-12T06:05:37.199Z,99862.91
2024-03-12T06:08:05.831Z,99867.29
2024-03-12T06:10:33.613Z,99866.69
2024-03-12T06:13:01.591Z,99869.18
2024-03-12T06:15:31.052Z,99872.84
2024-03-12T06:17:58.921Z,99873.69
2024-03-12T06:20:28.584Z,99876.11
2024-03-12T06:22:56.813Z,99879.50
2024-03-12T06:25:24.619Z,99879.65
2024-03-12T06:27:53.526Z,99884.95
2024-03-12T06:30:21.466Z,99883.63
2024-03-12T06:32:49.377Z,99888.20
2024-03-12T06:35:18.417Z,99887.95
2024-03-12T06:37:46.221Z,99890.53
2024-03-12T06:40:18.532Z,99892.36
2024-03-12T06:42:46.615Z,99893.33
2024-03-12T06:45:14.524Z,99892.51
2024-03-12T06:47:43.059Z,99893.70
2024-03-12T06:50:11.529Z,99897.48
2024-03-12T06:52:39.406Z,99895.30
2024-03-12T06:55:17.005Z,99897.52
2024-03-12T06:57:49.417Z,99902.52
2024-03-12T07:00:24.435Z,99908.88
2024-03-12T07:02:52.593Z,99909.65
2024-03-12T07:05:21.611Z,99913.28
2024-03-12T07:07:49.463Z,99914.08
2024-03-12T07:10:18.555Z,99916.89
2024-03-12T07:12:47.372Z,99917.61
2024-03-12T07:15:17.710Z,99921.78
2024-03-12T07:17:45.636Z,99923.77
2024-03-12T07:20:16.671Z,99921.16
2024-03-12T07:22:46.737Z,99923.41
2024-03-12T07:25:15.149Z,99927.53
2024-03-12T07:27:43.386Z,99930.92
2024-03-12T07:30:12.032Z,99930.34
2024-03-12T07:32:40.441Z,99931.93
2024-03-12T07:35:11.047Z,99940.00
2024-03-12T07:37:40.738Z,99939.70
2024-03-12T07:40:10.931Z,99943.69
2024-03-12T07:42:42.952Z,99940.52
2024-03-12T07:45:11.814Z,99948.30
2024-03-12T07:47:42.312Z,99945.96
2024-03-12T07:50:12.786Z,99945.59
2024-03-12T07:52:40.738Z,99947.73
2024-03-12T07:55:11.266Z,99950.89
2024-03-12T07:57:39.591Z,99951.35
2024-03-12T08:00:16.334Z,99956.78
2024-03-12T08:02:44.824Z,99952.81
2024-03-12T08:05:13.655Z,99955.88
2024-03-12T08:07:41.717Z,99959.00
2024-03-12T08:10:11.354Z,99958.27
2024-03-12T08:12:41.442Z,99959.71
2024-03-12T08:15:14.592Z,99961.43
2024-03-12T08:17:44.630Z,99965.96
2024-03-12T08:20:15.077Z,99964.52
2024-03-12T08:22:43.052Z,99968.27
2024-03-12T08:25:12.481Z,99969.55
2024-03-12T08:27:43.810Z,99974.58
2024-03-12T08:30:13.456Z,99975.83
2024-03-12T08:32:44.607Z,99979.28
2024-03-12T08:35:12.511Z,99982.22
2024-03-12T08:37:40.446Z,99987.05
2024-03-12T08:40:09.430Z,99984.06
2024-03-12T08:42:44.934Z,99985.92
2024-03-12T08:45:22.501Z,99984.73
2024-03-12T08:47:52.541Z,99983.88
2024-03-12T08:50:20.536Z,99987.23
2024-03-12T08:52:48.382Z,99992.55
2024-03-12T08:55:18.156Z,99993.88
2024-03-12T08:57:46.161Z,99998.55
2024-03-12T09:00:14.557Z,99995.30
2024-03-12T09:02:43.057Z,99999.60
2024-03-12T09:05:11.172Z,100005.06
2024-03-12T09:07:39.437Z,100006.39
2024-03-12T09:10:13.065Z,100008.10
2024-03-12T09:12:44.015Z,100006.59
2024-03-12T09:15:12.110Z,100014.99
2024-03-12T09:17:40.213Z,100015.63
2024-03-12T09:20:11.722Z,100014.46
2024-03-12T09:22:41.052Z,100015.16
2024-03-12T09:25:09.934Z,100013.93
2024-03-12T09:27:38.873Z,100015.16
2024-03-12T09:30:08.827Z,100013.75
2024-03-12T09:32:36.686Z,100016.08
2024-03-12T09:35:05.107Z,100015.71
2024-03-12T09:37:37.386Z,100019.02
2024-03-12T09:40:09.240Z,100020.27
2024-03-12T09:42:38.401Z,100022.11
2024-03-12T09:45:09.829Z,100021.49
2024-03-12T09:47:38.304Z,100025.16
2024-03-12T09:50:12.724Z,100026.68
2024-03-12T09:52:41.387Z,100025.84
2024-03-12T09:55:12.260Z,100028.59
2024-03-12T09:57:45.956Z,100032.04
2024-03-12T10:00:20.789Z,100033.64
2024-03-12T10:02:51.537Z,100034.91
2024-03-12T10:05:24.491Z,100034.96
2024-03-12T10:08:08.919Z,100036.99
2024-03-12T10:10:39.413Z,100039.70
2024-03-12T10:13:16.025Z,100038.47
2024-03-12T10:16:00.725Z,100038.77
2024-03-12T10:18:31.082Z,100042.53
2024-03-12T10:21:02.697Z,100045.29
2024-03-12T10:23:34.709Z,100048.80
2024-03-12T10:26:20.587Z,100041.56
2024-03-12T10:28:52.249Z,100047.15
2024-03-12T10:31:21.476Z,100051.00
2024-03-12T10:33:50.631Z,100050.46
2024-03-12T10:36:33.558Z,100051.43
2024-03-12T10:39:13.520Z,100052.43
2024-03-12T10:41:44.461Z,100057.80
2024-03-12T10:44:12.636Z,100060.48
2024-03-12T10:46:41.836Z,100058.50
2024-03-12T10:49:13.918Z,100058.74
2024-03-12T10:51:44.169Z,100060.88
2024-03-12T10:54:15.665Z,100062.89
2024-03-12T10:56:47.020Z,100067.04
2024-03-12T10:59:17.634Z,100065.27
2024-03-12T11:01:46.255Z,100063.38
2024-03-12T11:04:14.913Z,100064.89
2024-03-12T11:06:42.797Z,100064.23
2024-03-12T11:09:19.267Z,100062.42
2024-03-12T11:11:48.380Z,100062.41
2024-03-12T11:14:17.018Z,100063.19
2024-03-12T11:16:44.860Z,100060.61
2024-03-12T11:19:24.596Z,100061.05
2024-03-12T11:21:53.918Z,100061.42
2024-03-12T11:24:44.372Z,100062.56
2024-03-12T11:27:21.264Z,100062.02
2024-03-12T11:30:15.882Z,100064.31
2024-03-12T11:32:52.320Z,100065.66
2024-03-12T11:35:22.943Z,100065.40
2024-03-12T11:38:00.175Z,100067.82
2024-03-12T11:40:32.128Z,100061.13
2024-03-12T11:43:00.467Z,100064.79
2024-03-12T11:45:37.618Z,100061.70
2024-03-12T11:48:08.951Z,100064.09
2024-03-12T11:50:40.817Z,100065.11
2024-03-12T11:53:23.740Z,100062.50
2024-03-12T11:56:06.370Z,100065.23
2024-03-12T11:58:42.400Z,100066.00
2024-03-12T12:01:12.136Z,100063.88
2024-03-12T12:03:40.664Z,100060.23
2024-03-12T12:06:11.606Z,100066.23
2024-03-12T12:08:46.122Z,100064.16
2024-03-12T12:11:21.276Z,100060.68
2024-03-12T12:13:49.533Z,100065.86
2024-03-12T12:16:18.831Z,100059.73
2024-03-12T12:18:48.252Z,100060.70
2024-03-12T12:21:20.177Z,100063.29
2024-03-12T12:23:49.119Z,100064.94
2024-03-12T12:26:22.381Z,100062.00
2024-03-12T12:28:53.895Z,100068.08
2024-03-12T12:31:23.563Z,100066.78
2024-03-12T12:33:53.062Z,100064.98
2024-03-12T12:36:26.840Z,100066.16
2024-03-12T12:39:02.456Z,100065.02
2024-03-12T12:41:44.197Z,100065.27
2024-03-12T12:44:18.344Z,100067.50
2024-03-12T12:46:49.729Z,100070.84
2024-03-12T12:49:18.918Z,100071.33
2024-03-12T12:51:48.088Z,100064.90
2024-03-12T12:54:17.254Z,100068.63
2024-03-12T12:56:48.038Z,100068.46
2024-03-12T12:59:21.761Z,100065.70
2024-03-12T13:01:50.788Z,100068.50
2024-03-12T13:04:28.433Z,100066.88
2024-03-12T13:06:58.458Z,100066.61
2024-03-12T13:09:33.690Z,100069.54
2024-03-12T13:12:09.202Z,100065.22
2024-03-12T13:14:38.512Z,100062.30
2024-03-12T13:17:10.407Z,100062.96
2024-03-12T13:19:38.543Z,100064.47
2024-03-12T13:22:13.471Z,100064.98
2024-03-12T13:24:45.539Z,100066.33
2024-03-12T13:27:15.305Z,100066.23
2024-03-12T13:29:46.971Z,100067.63
2024-03-12T13:32:15.322Z,100070.80
2024-03-12T13:34:43.423Z,100067.95
2024-03-12T13:37:14.007Z,100076.01
2024-03-12T13:39:42.079Z,100069.30
2024-03-12T13:42:11.591Z,100071.86
2024-03-12T13:44:39.483Z,100072.78
2024-03-12T13:47:07.436Z,100073.17
2024-03-12T13:49:35.547Z,100073.98
2024-03-12T13:52:03.626Z,100078.67
2024-03-12T13:54:31.906Z,100073.67
2024-03-12T13:56:59.884Z,100076.23
2024-03-12T13:59:29.023Z,100076.45
2024-03-12T14:01:58.169Z,100078.29
2024-03-12T14:04:32.190Z,100075.48
2024-03-12T14:07:00.789Z,100072.52
2024-03-12T14:09:28.890Z,100076.11
2024-03-12T14:11:56.746Z,100075.17
2024-03-12T14:14:24.790Z,100073.30
2024-03-12T14:16:53.052Z,100072.61
2024-03-12T14:19:21.975Z,100074.30
2024-03-12T14:21:49.924Z,100078.80
2024-03-12T14:24:17.990Z,100081.73
2024-03-12T14:26:45.765Z,100082.71
2024-03-12T14:29:13.522Z,100085.33
2024-03-12T14:31:42.818Z,100084.40
2024-03-12T14:34:11.036Z,100084.67
2024-03-12T14:36:39.145Z,100088.19
2024-03-12T14:39:09.158Z,100088.94
2024-03-12T14:41:37.173Z,100090.11
2024-03-12T14:44:06.061Z,100093.63
2024-03-12T14:46:34.614Z,100090.98
2024-03-12T14:49:02.645Z,100089.25
2024-03-12T14:51:30.895Z,100081.12
2024-03-12T14:53:58.718Z,100081.41
2024-03-12T14:56:26.993Z,100078.89
2024-03-12T14:58:55.253Z,100079.25
2024-03-12T15:01:24.306Z,100077.41
2024-03-12T15:03:52.347Z,100079.58
2024-03-12T15:06:20.207Z,100084.51
2024-03-12T15:08:48.195Z,100087.37
2024-03-12T15:11:16.086Z,100091.28
2024-03-12T15:13:44.546Z,100093.52
2024-03-12T15:16:12.494Z,100094.33
2024-03-12T15:18:40.918Z,100098.70
2024-03-12T15:21:09.067Z,100099.32
2024-03-12T15:23:36.937Z,100098.42
2024-03-12T15:26:06.553Z,100103.84
2024-03-12T15:28:34.858Z,100105.95
2024-03-12T15:31:05.191Z,100108.84
2024-03-12T15:33:34.446Z,100108.18
2024-03-12T15:36:02.384Z,100111.96
2024-03-12T15:38:33.214Z,100113.56
2024-03-12T15:41:00.953Z,100117.51
2024-03-12T15:43:29.032Z,100117.65
2024-03-12T15:45:59.667Z,100119.28
2024-03-12T15:48:27.523Z,100123.59
2024-03-12T15:50:55.927Z,100122.20
2024-03-12T15:53:24.162Z,100125.15
2024-03-12T15:55:52.229Z,100127.83
2024-03-12T15:58:20.200Z,100129.42
2024-03-12T16:00:48.132Z,100135.93
2024-03-12T16:03:16.268Z,100134.37
2024-03-12T16:05:44.267Z,100137.08
2024-03-12T16:08:12.476Z,100140.05
2024-03-12T16:10:40.197Z,100145.27
2024-03-12T16:13:09.423Z,100146.29
2024-03-12T16:15:38.585Z,100148.75
2024-03-12T16:18:07.022Z,100155.23
2024-03-12T16:20:35.035Z,100156.77
2024-03-12T16:23:03.764Z,100157.30
2024-03-12T16:25:31.738Z,100157.66
2024-03-12T16:27:59.673Z,100160.91
2024-03-12T16:30:27.733Z,100161.97
2024-03-12T16:32:56.102Z,100163.23
2024-03-12T16:35:24.851Z,100168.44
2024-03-12T16:37:52.717Z,100169.58
2024-03-12T16:40:21.211Z,100170.13
2024-03-12T16:42:49.830Z,100171.63
2024-03-12T16:45:17.768Z,100169.23
2024-03-12T16:47:45.666Z,100167.45
2024-03-12T16:50:16.395Z,100170.12
2024-03-12T16:52:44.706Z,100172.34
2024-03-12T16:55:13.493Z,100174.95
2024-03-12T16:57:42.096Z,100171.95
2024-03-12T17:00:15.604Z,100174.05
2024-03-12T17:02:44.201Z,100172.84
2024-03-12T17:05:23.257Z,100172.85
2024-03-12T17:07:54.278Z,100179.55
2024-03-12T17:10:25.312Z,100178.65
2024-03-12T17:12:53.735Z,100172.75
2024-03-12T17:15:22.570Z,100177.39
2024-03-12T17:17:50.918Z,100175.42
2024-03-12T17:20:18.869Z,100175.73
2024-03-12T17:22:48.071Z,100177.68
2024-03-12T17:25:18.585Z,100181.17
2024-03-12T17:27:49.038Z,100182.85
2024-03-12T17:30:17.062Z,100181.20
2024-03-12T17:32:47.411Z,100185.91
2024-03-12T17:35:16.581Z,100186.81
2024-03-12T17:37:45.436Z,100185.93
2024-03-12T17:40:17.070Z,100189.25
2024-03-12T17:42:46.655Z,100193.14
2024-03-12T17:45:16.864Z,100194.70
2024-03-12T17:47:52.600Z,100194.44
2024-03-12T17:50:25.809Z,100199.27
2024-03-12T17:52:55.450Z,100199.91
2024-03-12T17:55:23.657Z,100200.49
2024-03-12T17:57:52.727Z,100202.59
2024-03-12T18:00:22.396Z,100206.16
2024-03-12T18:02:51.140Z,100206.39
2024-03-12T18:05:23.198Z,100210.67
2024-03-12T18:07:54.545Z,100210.64
2024-03-12T18:10:26.697Z,100219.50
2024-03-12T18:12:55.028Z,100218.08
2024-03-12T18:15:25.200Z,100221.16
2024-03-12T18:17:54.353Z,100222.36
2024-03-12T18:20:31.627Z,100223.52
2024-03-12T18:22:59.989Z,100227.13
2024-03-12T18:25:28.015Z,100229.17
2024-03-12T18:27:59.223Z,100231.80
2024-03-12T18:30:28.185Z,100233.33
2024-03-12T18:32:56.246Z,100233.55
2024-03-12T18:35:25.272Z,100233.25
2024-03-12T18:37:53.230Z,100235.09
2024-03-12T18:40:23.387Z,100233.51
2024-03-12T18:42:52.338Z,100235.02
2024-03-12T18:45:23.548Z,100240.92
2024-03-12T18:47:52.270Z,100248.14
2024-03-12T18:50:22.068Z,100247.27
2024-03-12T18:52:50.426Z,100246.84
2024-03-12T18:55:19.471Z,100246.36
2024-03-12T18:57:47.976Z,100251.79
2024-03-12T19:00:19.861Z,100250.17
2024-03-12T19:02:49.454Z,100258.75
2024-03-12T19:05:23.283Z,100260.52
2024-03-12T19:07:52.435Z,100258.63
2024-03-12T19:10:21.127Z,100259.99
2024-03-12T19:12:50.636Z,100263.44
2024-03-12T19:15:22.758Z,100264.34
2024-03-12T19:17:52.055Z,100262.89
2024-03-12T19:20:21.169Z,100269.45
2024-03-12T19:22:51.098Z,100267.50
2024-03-12T19:25:20.859Z,100267.24
2024-03-12T19:27:50.337Z,100267.19
2024-03-12T19:30:21.707Z,100270.52
2024-03-12T19:32:53.498Z,100269.17
2024-03-12T19:35:22.635Z,100268.40
2024-03-12T19:37:51.041Z,100271.95
2024-03-12T19:40:22.904Z,100271.88
2024-03-12T19:42:52.464Z,100274.18
2024-03-12T19:45:26.979Z,100273.19
2024-03-12T19:47:57.934Z,100276.64
2024-03-12T19:50:26.458Z,100275.95
2024-03-12T19:52:56.515Z,100278.87
2024-03-12T19:55:26.572Z,100279.66
2024-03-12T19:58:00.777Z,100279.33
2024-03-12T20:00:31.981Z,100274.52
2024-03-12T20:03:01.810Z,100280.36
2024-03-12T20:05:31.584Z,100281.78
2024-03-12T20:08:05.561Z,100284.31
2024-03-12T20:10:34.235Z,100284.23
2024-03-12T20:13:05.849Z,100283.48
2024-03-12T20:15:34.251Z,100288.27
2024-03-12T20:18:02.749Z,100290.25
2024-03-12T20:20:31.572Z,100288.14
2024-03-12T20:22:59.987Z,100288.80
2024-03-12T20:25:28.083Z,100286.52
2024-03-12T20:27:56.764Z,100287.30
2024-03-12T20:30:29.280Z,100285.74
2024-03-12T20:33:00.034Z,100286.04
2024-03-12T20:35:31.611Z,100287.72
2024-03-12T20:37:59.798Z,100286.33
2024-03-12T20:40:29.135Z,100289.59
2024-03-12T20:43:00.450Z,100289.23
2024-03-12T20:45:30.339Z,100289.68
2024-03-12T20:48:01.843Z,100289.67
2024-03-12T20:50:30.233Z,100295.02
2024-03-12T20:52:58.813Z,100292.40
2024-03-12T20:55:26.747Z,100291.84
2024-03-12T20:57:54.661Z,100292.35
2024-03-12T21:00:29.804Z,100288.14
2024-03-12T21:02:58.435Z,100291.63
2024-03-12T21:05:32.104Z,100289.55
2024-03-12T21:08:00.339Z,100293.98
2024-03-12T21:10:28.415Z,100295.37
2024-03-12T21:12:57.162Z,100298.52
2024-03-12T21:15:26.148Z,100301.03
2024-03-12T21:17:54.349Z,100307.09
2024-03-12T21:20:34.591Z,100308.65
2024-03-12T21:23:07.245Z,100312.22
2024-03-12T21:25:35.434Z,100313.03
2024-03-12T21:28:04.296Z,100308.52
2024-03-12T21:30:32.815Z,100311.77
2024-03-12T21:33:01.072Z,100315.98
2024-03-12T21:35:30.167Z,100311.27
2024-03-12T21:37:58.807Z,100309.85
2024-03-12T21:40:28.162Z,100312.35
2024-03-12T21:42:56.267Z,100309.23
2024-03-12T21:45:24.916Z,100312.54
2024-03-12T21:47:54.552Z,100318.08
2024-03-12T21:50:23.053Z,100317.59
2024-03-12T21:52:51.238Z,100321.19
2024-03-12T21:55:19.864Z,100316.18
2024-03-12T21:57:48.560Z,100317.70
2024-03-12T22:00:20.966Z,100317.64
2024-03-12T22:02:50.599Z,100321.39
2024-03-12T22:05:21.440Z,100322.89
2024-03-12T22:07:52.425Z,100321.97
2024-03-12T22:10:20.670Z,100324.50
2024-03-12T22:12:49.827Z,100324.06
2024-03-12T22:15:18.160Z,100325.61
2024-03-12T22:17:47.262Z,100326.55
2024-03-12T22:20:17.618Z,100326.08
2024-03-12T22:22:46.585Z,100332.33
2024-03-12T22:25:16.221Z,100330.39
2024-03-12T22:27:45.415Z,100332.32
2024-03-12T22:30:14.495Z,100333.16
2024-03-12T22:32:46.543Z,100333.80
2024-03-12T22:35:15.163Z,100335.27
2024-03-12T22:37:44.922Z,100337.66
2024-03-12T22:40:14.048Z,100340.64
2024-03-12T22:42:42.732Z,100338.98
2024-03-12T22:45:13.313Z,100341.73
2024-03-12T22:47:42.974Z,100346.20
2024-03-12T22:50:11.819Z,100348.69
2024-03-12T22:52:42.410Z,100349.65
2024-03-12T22:55:13.419Z,100347.33
2024-03-12T22:57:43.297Z,100346.83
2024-03-12T23:00:30.669Z,100347.80
2024-03-12T23:03:02.322Z,100351.25
2024-03-12T23:05:35.358Z,100355.45
2024-03-12T23:08:07.324Z,100351.30
2024-03-12T23:10:37.885Z,100353.90
2024-03-12T23:13:08.307Z,100355.66
2024-03-12T23:15:36.633Z,100354.75
2024-03-12T23:18:06.556Z,100350.52
2024-03-12T23:20:36.164Z,100349.11
2024-03-12T23:23:06.495Z,100355.20
2024-03-12T23:25:38.172Z,100353.61
2024-03-12T23:28:07.145Z,100350.62
2024-03-12T23:30:36.371Z,100351.00
2024-03-12T23:33:09.703Z,100354.45
2024-03-12T23:35:39.637Z,100357.40
2024-03-12T23:38:08.971Z,100357.00
2024-03-12T23:40:37.028Z,100357.23
2024-03-12T23:43:05.937Z,100360.73
2024-03-12T23:45:34.663Z,100361.83
2024-03-12T23:48:04.164Z,100363.91
2024-03-12T23:50:33.918Z,100364.08
2024-03-12T23:53:03.478Z,100361.67
2024-03-12T23:55:32.843Z,100363.09
2024-03-12T23:58:02.045Z,100360.84
